sensor_id;sensor_type;location;lat;lon;timestamp;P1;durP1;ratioP1;P2;durP2;ratioP2
50161;SDS011;36061;48.116;11.612;2022-07-29T00:00:37;1.00;;;0.97;;
50161;SDS011;36061;48.116;11.612;2022-07-29T00:03:03;1.00;;;1.00;;
50161;SDS011;36061;48.116;11.612;2022-07-29T00:05:28;2.10;;;1.20;;
50161;SDS011;36061;48.116;11.612;2022-07-29T00:07:54;1.30;;;1.07;;
50161;SDS011;36061;48.116;11.612;2022-07-29T00:10:20;1.50;;;1.20;;
50161;SDS011;36061;48.116;11.612;2022-07-29T00:12:46;1.67;;;1.00;;
50161;SDS011;36061;48.116;11.612;2022-07-29T00:15:12;2.37;;;1.20;;
50161;SDS011;36061;48.116;11.612;2022-07-29T00:17:38;2.50;;;1.40;;
50161;SDS011;36061;48.116;11.612;2022-07-29T00:20:04;2.43;;;1.40;;
50161;SDS011;36061;48.116;11.612;2022-07-29T00:22:30;3.03;;;1.40;;
50161;SDS011;36061;48.116;11.612;2022-07-29T00:24:56;2.63;;;1.53;;
50161;SDS011;36061;48.116;11.612;2022-07-29T00:27:22;1.27;;;1.07;;
50161;SDS011;36061;48.116;11.612;2022-07-29T00:29:48;1.60;;;1.40;;
50161;SDS011;36061;48.116;11.612;2022-07-29T00:32:13;1.40;;;1.30;;
50161;SDS011;36061;48.116;11.612;2022-07-29T00:34:39;1.93;;;1.30;;
50161;SDS011;36061;48.116;11.612;2022-07-29T00:37:24;1.70;;;1.50;;
50161;SDS011;36061;48.116;11.612;2022-07-29T00:39:50;2.03;;;1.83;;
50161;SDS011;36061;48.116;11.612;2022-07-29T00:42:16;1.50;;;1.33;;
50161;SDS011;36061;48.116;11.612;2022-07-29T00:44:42;1.53;;;1.37;;
50161;SDS011;36061;48.116;11.612;2022-07-29T00:47:08;1.80;;;1.70;;
50161;SDS011;36061;48.116;11.612;2022-07-29T00:49:36;1.30;;;1.20;;
50161;SDS011;36061;48.116;11.612;2022-07-29T00:52:04;1.83;;;1.50;;
50161;SDS011;36061;48.116;11.612;2022-07-29T00:54:30;1.80;;;1.30;;
50161;SDS011;36061;48.116;11.612;2022-07-29T00:56:57;1.67;;;1.47;;
50161;SDS011;36061;48.116;11.612;2022-07-29T00:59:24;1.40;;;1.30;;
50161;SDS011;36061;48.116;11.612;2022-07-29T01:01:53;2.90;;;1.30;;
50161;SDS011;36061;48.116;11.612;2022-07-29T01:04:20;1.30;;;1.20;;
50161;SDS011;36061;48.116;11.612;2022-07-29T01:06:49;1.63;;;1.30;;
50161;SDS011;36061;48.116;11.612;2022-07-29T01:09:17;1.40;;;1.13;;
50161;SDS011;36061;48.116;11.612;2022-07-29T01:11:44;1.40;;;1.30;;
50161;SDS011;36061;48.116;11.612;2022-07-29T01:14:12;1.30;;;1.20;;
50161;SDS011;36061;48.116;11.612;2022-07-29T01:16:44;1.30;;;1.20;;
50161;SDS011;36061;48.116;11.612;2022-07-29T01:22:02;1.30;;;1.20;;
50161;SDS011;36061;48.116;11.612;2022-07-29T01:25:10;1.77;;;1.30;;
50161;SDS011;36061;48.116;11.612;2022-07-29T01:30:40;1.40;;;1.30;;
50161;SDS011;36061;48.116;11.612;2022-07-29T01:33:10;1.00;;;1.00;;
50161;SDS011;36061;48.116;11.612;2022-07-29T01:35:58;1.20;;;1.10;;
50161;SDS011;36061;48.116;11.612;2022-07-29T01:38:30;3.70;;;1.00;;
50161;SDS011;36061;48.116;11.612;2022-07-29T01:41:02;1.70;;;1.43;;
50161;SDS011;36061;48.116;11.612;2022-07-29T01:43:39;1.80;;;1.30;;
50161;SDS011;36061;48.116;11.612;2022-07-29T01:46:15;1.47;;;1.23;;
50161;SDS011;36061;48.116;11.612;2022-07-29T01:48:47;1.30;;;1.20;;
50161;SDS011;36061;48.116;11.612;2022-07-29T01:51:21;1.20;;;1.10;;
50161;SDS011;36061;48.116;11.612;2022-07-29T01:53:59;1.60;;;1.20;;
50161;SDS011;36061;48.116;11.612;2022-07-29T01:56:50;1.30;;;1.00;;
50161;SDS011;36061;48.116;11.612;2022-07-29T01:59:20;1.00;;;1.00;;
50161;SDS011;36061;48.116;11.612;2022-07-29T02:01:47;1.47;;;1.30;;
50161;SDS011;36061;48.116;11.612;2022-07-29T02:04:15;3.83;;;1.10;;
50161;SDS011;36061;48.116;11.612;2022-07-29T02:06:42;1.40;;;1.00;;
50161;SDS011;36061;48.116;11.612;2022-07-29T02:09:11;1.17;;;0.90;;
50161;SDS011;36061;48.116;11.612;2022-07-29T02:11:39;1.03;;;0.93;;
50161;SDS011;36061;48.116;11.612;2022-07-29T02:14:07;1.00;;;1.00;;
50161;SDS011;36061;48.116;11.612;2022-07-29T02:16:36;1.20;;;1.10;;
50161;SDS011;36061;48.116;11.612;2022-07-29T02:19:04;1.00;;;0.90;;
50161;SDS011;36061;48.116;11.612;2022-07-29T02:21:33;0.70;;;0.70;;
50161;SDS011;36061;48.116;11.612;2022-07-29T02:24:01;1.00;;;0.87;;
50161;SDS011;36061;48.116;11.612;2022-07-29T02:26:27;1.10;;;1.00;;
50161;SDS011;36061;48.116;11.612;2022-07-29T02:28:56;1.17;;;0.93;;
50161;SDS011;36061;48.116;11.612;2022-07-29T02:31:24;1.17;;;0.93;;
50161;SDS011;36061;48.116;11.612;2022-07-29T02:33:53;1.30;;;1.10;;
50161;SDS011;36061;48.116;11.612;2022-07-29T02:36:21;1.67;;;1.20;;
50161;SDS011;36061;48.116;11.612;2022-07-29T02:38:48;2.03;;;1.00;;
50161;SDS011;36061;48.116;11.612;2022-07-29T02:41:17;2.40;;;1.00;;
50161;SDS011;36061;48.116;11.612;2022-07-29T02:43:48;0.93;;;0.93;;
50161;SDS011;36061;48.116;11.612;2022-07-29T02:46:20;1.30;;;1.20;;
50161;SDS011;36061;48.116;11.612;2022-07-29T02:48:58;0.93;;;0.90;;
50161;SDS011;36061;48.116;11.612;2022-07-29T02:51:33;1.00;;;1.00;;
50161;SDS011;36061;48.116;11.612;2022-07-29T02:54:23;2.50;;;1.00;;
50161;SDS011;36061;48.116;11.612;2022-07-29T02:57:06;1.30;;;1.20;;
50161;SDS011;36061;48.116;11.612;2022-07-29T02:59:38;0.90;;;0.90;;
50161;SDS011;36061;48.116;11.612;2022-07-29T03:02:07;0.90;;;0.90;;
50161;SDS011;36061;48.116;11.612;2022-07-29T03:04:34;1.57;;;1.47;;
50161;SDS011;36061;48.116;11.612;2022-07-29T03:07:02;2.03;;;0.90;;
50161;SDS011;36061;48.116;11.612;2022-07-29T03:09:30;1.10;;;1.00;;
50161;SDS011;36061;48.116;11.612;2022-07-29T03:11:56;1.20;;;0.80;;
50161;SDS011;36061;48.116;11.612;2022-07-29T03:14:22;1.20;;;1.10;;
50161;SDS011;36061;48.116;11.612;2022-07-29T03:16:49;1.03;;;1.00;;
50161;SDS011;36061;48.116;11.612;2022-07-29T03:19:16;1.10;;;1.10;;
50161;SDS011;36061;48.116;11.612;2022-07-29T03:21:42;1.00;;;0.90;;
50161;SDS011;36061;48.116;11.612;2022-07-29T03:24:08;1.77;;;1.00;;
50161;SDS011;36061;48.116;11.612;2022-07-29T03:26:34;1.40;;;1.30;;
50161;SDS011;36061;48.116;11.612;2022-07-29T03:28:59;1.57;;;1.40;;
50161;SDS011;36061;48.116;11.612;2022-07-29T03:31:25;1.30;;;1.20;;
50161;SDS011;36061;48.116;11.612;2022-07-29T03:33:51;1.17;;;1.07;;
50161;SDS011;36061;48.116;11.612;2022-07-29T03:36:17;3.43;;;1.30;;
50161;SDS011;36061;48.116;11.612;2022-07-29T03:38:43;2.57;;;1.20;;
50161;SDS011;36061;48.116;11.612;2022-07-29T03:41:11;1.30;;;1.20;;
50161;SDS011;36061;48.116;11.612;2022-07-29T03:43:38;1.83;;;1.10;;
50161;SDS011;36061;48.116;11.612;2022-07-29T03:46:07;1.27;;;1.17;;
50161;SDS011;36061;48.116;11.612;2022-07-29T03:48:34;2.50;;;1.20;;
50161;SDS011;36061;48.116;11.612;2022-07-29T03:51:04;2.10;;;1.40;;
50161;SDS011;36061;48.116;11.612;2022-07-29T03:53:31;1.63;;;1.40;;
50161;SDS011;36061;48.116;11.612;2022-07-29T03:55:58;3.10;;;1.23;;
50161;SDS011;36061;48.116;11.612;2022-07-29T03:58:26;1.23;;;1.10;;
50161;SDS011;36061;48.116;11.612;2022-07-29T04:00:53;2.43;;;1.40;;
50161;SDS011;36061;48.116;11.612;2022-07-29T04:03:20;1.27;;;1.17;;
50161;SDS011;36061;48.116;11.612;2022-07-29T04:05:57;2.67;;;1.30;;
50161;SDS011;36061;48.116;11.612;2022-07-29T04:08:27;2.13;;;1.50;;
50161;SDS011;36061;48.116;11.612;2022-07-29T04:10:53;1.60;;;1.47;;
50161;SDS011;36061;48.116;11.612;2022-07-29T04:13:20;2.70;;;1.70;;
50161;SDS011;36061;48.116;11.612;2022-07-29T04:15:45;1.87;;;1.63;;
50161;SDS011;36061;48.116;11.612;2022-07-29T04:18:11;2.23;;;1.50;;
50161;SDS011;36061;48.116;11.612;2022-07-29T04:20:37;2.83;;;1.50;;
50161;SDS011;36061;48.116;11.612;2022-07-29T04:23:03;1.90;;;1.50;;
50161;SDS011;36061;48.116;11.612;2022-07-29T04:25:28;1.90;;;1.43;;
50161;SDS011;36061;48.116;11.612;2022-07-29T04:27:54;1.73;;;1.50;;
50161;SDS011;36061;48.116;11.612;2022-07-29T04:30:26;1.83;;;1.40;;
50161;SDS011;36061;48.116;11.612;2022-07-29T04:32:52;1.47;;;1.30;;
50161;SDS011;36061;48.116;11.612;2022-07-29T04:35:19;2.63;;;1.70;;
50161;SDS011;36061;48.116;11.612;2022-07-29T04:37:45;2.83;;;1.50;;
50161;SDS011;36061;48.116;11.612;2022-07-29T04:40:11;2.13;;;1.47;;
50161;SDS011;36061;48.116;11.612;2022-07-29T04:42:37;1.93;;;1.40;;
50161;SDS011;36061;48.116;11.612;2022-07-29T04:45:04;4.63;;;1.77;;
50161;SDS011;36061;48.116;11.612;2022-07-29T04:47:30;1.67;;;1.40;;
50161;SDS011;36061;48.116;11.612;2022-07-29T04:49:56;5.50;;;1.80;;
50161;SDS011;36061;48.116;11.612;2022-07-29T04:52:22;1.50;;;1.23;;
50161;SDS011;36061;48.116;11.612;2022-07-29T04:54:48;1.80;;;1.50;;
50161;SDS011;36061;48.116;11.612;2022-07-29T04:57:14;1.53;;;1.40;;
50161;SDS011;36061;48.116;11.612;2022-07-29T04:59:40;2.77;;;1.50;;
50161;SDS011;36061;48.116;11.612;2022-07-29T05:02:05;3.27;;;1.63;;
50161;SDS011;36061;48.116;11.612;2022-07-29T05:04:31;2.20;;;1.73;;
50161;SDS011;36061;48.116;11.612;2022-07-29T05:06:57;2.10;;;1.60;;
50161;SDS011;36061;48.116;11.612;2022-07-29T05:09:23;1.40;;;1.10;;
50161;SDS011;36061;48.116;11.612;2022-07-29T05:11:48;1.43;;;1.33;;
50161;SDS011;36061;48.116;11.612;2022-07-29T05:14:14;1.70;;;1.60;;
50161;SDS011;36061;48.116;11.612;2022-07-29T05:16:40;1.90;;;1.70;;
50161;SDS011;36061;48.116;11.612;2022-07-29T05:19:07;1.53;;;1.37;;
50161;SDS011;36061;48.116;11.612;2022-07-29T05:21:33;2.80;;;1.40;;
50161;SDS011;36061;48.116;11.612;2022-07-29T05:23:58;2.77;;;1.57;;
50161;SDS011;36061;48.116;11.612;2022-07-29T05:26:24;1.43;;;1.30;;
50161;SDS011;36061;48.116;11.612;2022-07-29T05:28:50;2.00;;;1.40;;
50161;SDS011;36061;48.116;11.612;2022-07-29T05:31:16;2.07;;;1.87;;
50161;SDS011;36061;48.116;11.612;2022-07-29T05:33:41;2.90;;;1.50;;
50161;SDS011;36061;48.116;11.612;2022-07-29T05:36:07;2.40;;;1.53;;
50161;SDS011;36061;48.116;11.612;2022-07-29T05:38:34;2.20;;;1.60;;
50161;SDS011;36061;48.116;11.612;2022-07-29T05:41:00;1.70;;;1.40;;
50161;SDS011;36061;48.116;11.612;2022-07-29T05:43:30;4.10;;;1.87;;
50161;SDS011;36061;48.116;11.612;2022-07-29T05:45:56;3.27;;;1.97;;
50161;SDS011;36061;48.116;11.612;2022-07-29T05:48:22;2.50;;;1.50;;
50161;SDS011;36061;48.116;11.612;2022-07-29T05:50:48;3.10;;;1.67;;
50161;SDS011;36061;48.116;11.612;2022-07-29T05:53:14;3.10;;;1.87;;
50161;SDS011;36061;48.116;11.612;2022-07-29T05:55:39;3.23;;;2.10;;
50161;SDS011;36061;48.116;11.612;2022-07-29T05:58:05;3.73;;;1.93;;
50161;SDS011;36061;48.116;11.612;2022-07-29T06:00:31;2.30;;;1.60;;
50161;SDS011;36061;48.116;11.612;2022-07-29T06:02:56;3.17;;;1.67;;
50161;SDS011;36061;48.116;11.612;2022-07-29T06:05:22;2.90;;;1.70;;
50161;SDS011;36061;48.116;11.612;2022-07-29T06:07:48;3.47;;;1.60;;
50161;SDS011;36061;48.116;11.612;2022-07-29T06:10:14;1.87;;;1.77;;
50161;SDS011;36061;48.116;11.612;2022-07-29T06:12:40;3.17;;;1.90;;
50161;SDS011;36061;48.116;11.612;2022-07-29T06:15:05;1.93;;;1.60;;
50161;SDS011;36061;48.116;11.612;2022-07-29T06:17:32;4.27;;;1.47;;
50161;SDS011;36061;48.116;11.612;2022-07-29T06:19:57;2.50;;;1.60;;
50161;SDS011;36061;48.116;11.612;2022-07-29T06:22:23;1.70;;;1.60;;
50161;SDS011;36061;48.116;11.612;2022-07-29T06:24:49;2.30;;;1.70;;
50161;SDS011;36061;48.116;11.612;2022-07-29T06:27:15;2.00;;;1.70;;
50161;SDS011;36061;48.116;11.612;2022-07-29T06:29:41;1.40;;;1.30;;
50161;SDS011;36061;48.116;11.612;2022-07-29T06:32:07;2.17;;;1.37;;
50161;SDS011;36061;48.116;11.612;2022-07-29T06:34:34;1.83;;;1.73;;
50161;SDS011;36061;48.116;11.612;2022-07-29T06:37:00;3.43;;;1.80;;
50161;SDS011;36061;48.116;11.612;2022-07-29T06:39:31;1.57;;;1.47;;
50161;SDS011;36061;48.116;11.612;2022-07-29T06:42:01;1.93;;;1.43;;
50161;SDS011;36061;48.116;11.612;2022-07-29T06:44:31;2.17;;;1.50;;
50161;SDS011;36061;48.116;11.612;2022-07-29T06:46:59;2.80;;;1.50;;
50161;SDS011;36061;48.116;11.612;2022-07-29T06:49:25;1.80;;;1.37;;
50161;SDS011;36061;48.116;11.612;2022-07-29T06:51:53;2.37;;;1.77;;
50161;SDS011;36061;48.116;11.612;2022-07-29T06:54:19;1.33;;;1.23;;
50161;SDS011;36061;48.116;11.612;2022-07-29T06:56:46;2.73;;;1.60;;
50161;SDS011;36061;48.116;11.612;2022-07-29T06:59:12;2.87;;;1.70;;
50161;SDS011;36061;48.116;11.612;2022-07-29T07:01:39;2.07;;;1.40;;
50161;SDS011;36061;48.116;11.612;2022-07-29T07:04:09;1.77;;;1.67;;
50161;SDS011;36061;48.116;11.612;2022-07-29T07:06:36;2.57;;;1.30;;
50161;SDS011;36061;48.116;11.612;2022-07-29T07:09:03;1.50;;;1.40;;
50161;SDS011;36061;48.116;11.612;2022-07-29T07:11:29;1.40;;;1.30;;
50161;SDS011;36061;48.116;11.612;2022-07-29T07:13:55;1.53;;;1.43;;
50161;SDS011;36061;48.116;11.612;2022-07-29T07:16:21;1.53;;;1.43;;
50161;SDS011;36061;48.116;11.612;2022-07-29T07:18:47;1.80;;;1.60;;
50161;SDS011;36061;48.116;11.612;2022-07-29T07:21:13;1.80;;;1.70;;
50161;SDS011;36061;48.116;11.612;2022-07-29T07:23:39;2.27;;;1.50;;
50161;SDS011;36061;48.116;11.612;2022-07-29T07:26:04;2.23;;;1.23;;
50161;SDS011;36061;48.116;11.612;2022-07-29T07:28:30;1.77;;;1.40;;
50161;SDS011;36061;48.116;11.612;2022-07-29T07:30:56;1.60;;;1.50;;
50161;SDS011;36061;48.116;11.612;2022-07-29T07:33:22;1.63;;;1.53;;
50161;SDS011;36061;48.116;11.612;2022-07-29T07:35:48;3.40;;;2.00;;
50161;SDS011;36061;48.116;11.612;2022-07-29T07:38:14;2.43;;;1.60;;
50161;SDS011;36061;48.116;11.612;2022-07-29T07:40:39;4.93;;;1.93;;
50161;SDS011;36061;48.116;11.612;2022-07-29T07:43:05;3.10;;;1.50;;
50161;SDS011;36061;48.116;11.612;2022-07-29T07:45:31;2.13;;;1.80;;
50161;SDS011;36061;48.116;11.612;2022-07-29T07:47:58;5.73;;;1.70;;
50161;SDS011;36061;48.116;11.612;2022-07-29T07:50:23;1.70;;;1.40;;
50161;SDS011;36061;48.116;11.612;2022-07-29T07:52:50;1.93;;;1.80;;
50161;SDS011;36061;48.116;11.612;2022-07-29T07:55:19;2.50;;;1.47;;
50161;SDS011;36061;48.116;11.612;2022-07-29T07:57:45;2.03;;;1.43;;
50161;SDS011;36061;48.116;11.612;2022-07-29T08:00:14;3.07;;;1.50;;
50161;SDS011;36061;48.116;11.612;2022-07-29T08:02:41;1.70;;;1.53;;
50161;SDS011;36061;48.116;11.612;2022-07-29T08:05:08;2.70;;;1.40;;
50161;SDS011;36061;48.116;11.612;2022-07-29T08:07:35;3.73;;;1.27;;
50161;SDS011;36061;48.116;11.612;2022-07-29T08:10:01;2.77;;;1.60;;
50161;SDS011;36061;48.116;11.612;2022-07-29T08:12:27;2.10;;;1.67;;
50161;SDS011;36061;48.116;11.612;2022-07-29T08:14:53;1.80;;;1.43;;
50161;SDS011;36061;48.116;11.612;2022-07-29T08:17:19;2.50;;;1.00;;
50161;SDS011;36061;48.116;11.612;2022-07-29T08:19:45;1.57;;;1.43;;
50161;SDS011;36061;48.116;11.612;2022-07-29T08:22:12;1.53;;;1.37;;
50161;SDS011;36061;48.116;11.612;2022-07-29T08:24:38;3.37;;;1.53;;
50161;SDS011;36061;48.116;11.612;2022-07-29T08:27:21;2.40;;;1.30;;
50161;SDS011;36061;48.116;11.612;2022-07-29T08:29:47;3.50;;;1.40;;
50161;SDS011;36061;48.116;11.612;2022-07-29T08:32:14;1.40;;;1.10;;
50161;SDS011;36061;48.116;11.612;2022-07-29T08:34:39;1.67;;;1.43;;
50161;SDS011;36061;48.116;11.612;2022-07-29T08:37:05;1.50;;;1.40;;
50161;SDS011;36061;48.116;11.612;2022-07-29T08:39:31;3.37;;;2.00;;
50161;SDS011;36061;48.116;11.612;2022-07-29T08:41:57;2.10;;;1.70;;
50161;SDS011;36061;48.116;11.612;2022-07-29T08:44:23;2.57;;;1.77;;
50161;SDS011;36061;48.116;11.612;2022-07-29T08:46:49;3.23;;;1.80;;
50161;SDS011;36061;48.116;11.612;2022-07-29T08:49:16;4.77;;;1.90;;
50161;SDS011;36061;48.116;11.612;2022-07-29T08:51:42;2.27;;;1.60;;
50161;SDS011;36061;48.116;11.612;2022-07-29T08:54:09;3.27;;;1.73;;
50161;SDS011;36061;48.116;11.612;2022-07-29T08:56:35;2.70;;;1.73;;
50161;SDS011;36061;48.116;11.612;2022-07-29T08:59:04;2.07;;;1.80;;
50161;SDS011;36061;48.116;11.612;2022-07-29T09:01:32;2.27;;;1.80;;
50161;SDS011;36061;48.116;11.612;2022-07-29T09:03:59;2.20;;;2.00;;
50161;SDS011;36061;48.116;11.612;2022-07-29T09:06:29;3.83;;;1.80;;
50161;SDS011;36061;48.116;11.612;2022-07-29T09:08:58;1.53;;;1.43;;
50161;SDS011;36061;48.116;11.612;2022-07-29T09:11:25;2.47;;;2.27;;
50161;SDS011;36061;48.116;11.612;2022-07-29T09:13:51;1.90;;;1.70;;
50161;SDS011;36061;48.116;11.612;2022-07-29T09:16:17;3.67;;;1.77;;
50161;SDS011;36061;48.116;11.612;2022-07-29T09:18:44;2.73;;;2.07;;
50161;SDS011;36061;48.116;11.612;2022-07-29T09:21:11;3.23;;;2.00;;
50161;SDS011;36061;48.116;11.612;2022-07-29T09:24:01;4.87;;;2.17;;
50161;SDS011;36061;48.116;11.612;2022-07-29T09:26:35;3.07;;;1.70;;
50161;SDS011;36061;48.116;11.612;2022-07-29T09:29:12;3.53;;;1.87;;
50161;SDS011;36061;48.116;11.612;2022-07-29T09:31:41;4.10;;;1.97;;
50161;SDS011;36061;48.116;11.612;2022-07-29T09:34:09;3.93;;;1.80;;
50161;SDS011;36061;48.116;11.612;2022-07-29T09:36:39;2.20;;;2.00;;
50161;SDS011;36061;48.116;11.612;2022-07-29T09:39:06;2.57;;;1.90;;
50161;SDS011;36061;48.116;11.612;2022-07-29T09:41:51;3.60;;;1.90;;
50161;SDS011;36061;48.116;11.612;2022-07-29T09:44:19;3.23;;;1.63;;
50161;SDS011;36061;48.116;11.612;2022-07-29T09:47:06;2.50;;;2.30;;
50161;SDS011;36061;48.116;11.612;2022-07-29T09:49:35;2.27;;;1.77;;
50161;SDS011;36061;48.116;11.612;2022-07-29T09:52:15;1.80;;;1.70;;
50161;SDS011;36061;48.116;11.612;2022-07-29T09:54:41;2.63;;;2.00;;
50161;SDS011;36061;48.116;11.612;2022-07-29T09:57:08;3.37;;;2.30;;
50161;SDS011;36061;48.116;11.612;2022-07-29T09:59:57;3.17;;;2.20;;
50161;SDS011;36061;48.116;11.612;2022-07-29T10:02:29;5.23;;;2.27;;
50161;SDS011;36061;48.116;11.612;2022-07-29T10:04:56;2.40;;;1.87;;
50161;SDS011;36061;48.116;11.612;2022-07-29T10:07:22;4.83;;;2.60;;
50161;SDS011;36061;48.116;11.612;2022-07-29T10:09:52;3.53;;;2.00;;
50161;SDS011;36061;48.116;11.612;2022-07-29T10:12:20;3.10;;;1.80;;
50161;SDS011;36061;48.116;11.612;2022-07-29T10:14:47;3.53;;;1.80;;
50161;SDS011;36061;48.116;11.612;2022-07-29T10:17:14;3.03;;;2.00;;
50161;SDS011;36061;48.116;11.612;2022-07-29T10:19:41;2.80;;;2.00;;
50161;SDS011;36061;48.116;11.612;2022-07-29T10:22:08;2.83;;;2.43;;
50161;SDS011;36061;48.116;11.612;2022-07-29T10:24:35;2.67;;;2.13;;
50161;SDS011;36061;48.116;11.612;2022-07-29T10:27:03;3.27;;;2.17;;
50161;SDS011;36061;48.116;11.612;2022-07-29T10:29:30;2.97;;;2.60;;
50161;SDS011;36061;48.116;11.612;2022-07-29T10:37:57;3.87;;;2.50;;
50161;SDS011;36061;48.116;11.612;2022-07-29T10:43:51;5.57;;;2.27;;
50161;SDS011;36061;48.116;11.612;2022-07-29T10:46:21;2.77;;;2.10;;
50161;SDS011;36061;48.116;11.612;2022-07-29T10:52:01;3.23;;;2.00;;
50161;SDS011;36061;48.116;11.612;2022-07-29T10:59:45;2.80;;;2.60;;
50161;SDS011;36061;48.116;11.612;2022-07-29T11:07:22;5.70;;;2.23;;
50161;SDS011;36061;48.116;11.612;2022-07-29T11:15:32;2.43;;;2.23;;
50161;SDS011;36061;48.116;11.612;2022-07-29T11:18:19;3.30;;;2.30;;
50161;SDS011;36061;48.116;11.612;2022-07-29T11:20:46;4.47;;;2.57;;
50161;SDS011;36061;48.116;11.612;2022-07-29T11:23:31;4.90;;;1.97;;
50161;SDS011;36061;48.116;11.612;2022-07-29T11:34:17;2.83;;;2.17;;
50161;SDS011;36061;48.116;11.612;2022-07-29T11:39:31;3.37;;;2.20;;
50161;SDS011;36061;48.116;11.612;2022-07-29T11:50:15;4.47;;;2.30;;
50161;SDS011;36061;48.116;11.612;2022-07-29T11:52:58;4.67;;;2.50;;
50161;SDS011;36061;48.116;11.612;2022-07-29T11:55:25;2.50;;;2.30;;
50161;SDS011;36061;48.116;11.612;2022-07-29T12:02:52;3.43;;;2.30;;
50161;SDS011;36061;48.116;11.612;2022-07-29T12:05:19;2.70;;;2.50;;
50161;SDS011;36061;48.116;11.612;2022-07-29T12:07:46;4.00;;;2.03;;
50161;SDS011;36061;48.116;11.612;2022-07-29T12:10:13;2.80;;;2.10;;
50161;SDS011;36061;48.116;11.612;2022-07-29T12:12:39;3.77;;;2.10;;
50161;SDS011;36061;48.116;11.612;2022-07-29T12:15:15;3.97;;;2.20;;
50161;SDS011;36061;48.116;11.612;2022-07-29T12:17:43;5.33;;;2.67;;
50161;SDS011;36061;48.116;11.612;2022-07-29T12:20:09;3.50;;;2.10;;
50161;SDS011;36061;48.116;11.612;2022-07-29T12:22:38;4.37;;;2.23;;
50161;SDS011;36061;48.116;11.612;2022-07-29T12:25:07;4.67;;;1.90;;
50161;SDS011;36061;48.116;11.612;2022-07-29T12:27:39;2.20;;;2.00;;
50161;SDS011;36061;48.116;11.612;2022-07-29T12:30:06;2.40;;;2.20;;
50161;SDS011;36061;48.116;11.612;2022-07-29T12:32:35;2.53;;;1.90;;
50161;SDS011;36061;48.116;11.612;2022-07-29T12:35:06;2.57;;;1.70;;
50161;SDS011;36061;48.116;11.612;2022-07-29T12:37:34;4.10;;;1.77;;
50161;SDS011;36061;48.116;11.612;2022-07-29T12:40:02;2.80;;;1.80;;
50161;SDS011;36061;48.116;11.612;2022-07-29T12:42:30;4.07;;;2.07;;
50161;SDS011;36061;48.116;11.612;2022-07-29T12:44:56;2.20;;;1.70;;
50161;SDS011;36061;48.116;11.612;2022-07-29T12:47:22;3.10;;;1.87;;
50161;SDS011;36061;48.116;11.612;2022-07-29T12:49:49;2.80;;;2.20;;
50161;SDS011;36061;48.116;11.612;2022-07-29T12:52:29;3.80;;;3.27;;
50161;SDS011;36061;48.116;11.612;2022-07-29T12:54:57;6.03;;;2.40;;
50161;SDS011;36061;48.116;11.612;2022-07-29T12:57:23;4.07;;;2.13;;
50161;SDS011;36061;48.116;11.612;2022-07-29T13:00:08;5.97;;;2.23;;
50161;SDS011;36061;48.116;11.612;2022-07-29T13:02:36;3.70;;;2.10;;
50161;SDS011;36061;48.116;11.612;2022-07-29T13:05:03;6.73;;;2.60;;
50161;SDS011;36061;48.116;11.612;2022-07-29T13:07:31;3.80;;;2.50;;
50161;SDS011;36061;48.116;11.612;2022-07-29T13:10:16;2.70;;;2.30;;
50161;SDS011;36061;48.116;11.612;2022-07-29T13:13:25;2.50;;;2.00;;
50161;SDS011;36061;48.116;11.612;2022-07-29T13:15:38;2.83;;;2.10;;
50161;SDS011;36061;48.116;11.612;2022-07-29T13:18:25;2.47;;;2.27;;
50161;SDS011;36061;48.116;11.612;2022-07-29T13:20:55;5.87;;;2.60;;
50161;SDS011;36061;48.116;11.612;2022-07-29T13:23:21;5.30;;;2.20;;
50161;SDS011;36061;48.116;11.612;2022-07-29T13:25:47;3.13;;;2.10;;
50161;SDS011;36061;48.116;11.612;2022-07-29T13:28:13;2.87;;;1.97;;
50161;SDS011;36061;48.116;11.612;2022-07-29T13:30:39;6.77;;;2.03;;
50161;SDS011;36061;48.116;11.612;2022-07-29T13:33:06;5.90;;;2.03;;
50161;SDS011;36061;48.116;11.612;2022-07-29T13:35:31;5.77;;;1.97;;
50161;SDS011;36061;48.116;11.612;2022-07-29T13:37:57;4.60;;;3.00;;
50161;SDS011;36061;48.116;11.612;2022-07-29T13:40:23;4.97;;;1.97;;
50161;SDS011;36061;48.116;11.612;2022-07-29T13:42:49;2.80;;;2.30;;
50161;SDS011;36061;48.116;11.612;2022-07-29T13:45:15;5.73;;;2.77;;
50161;SDS011;36061;48.116;11.612;2022-07-29T13:47:41;4.07;;;1.93;;
50161;SDS011;36061;48.116;11.612;2022-07-29T13:50:07;2.67;;;2.13;;
50161;SDS011;36061;48.116;11.612;2022-07-29T13:52:35;3.47;;;2.53;;
50161;SDS011;36061;48.116;11.612;2022-07-29T13:55:02;3.70;;;2.23;;
50161;SDS011;36061;48.116;11.612;2022-07-29T13:57:29;4.90;;;2.07;;
50161;SDS011;36061;48.116;11.612;2022-07-29T13:59:55;2.67;;;2.00;;
50161;SDS011;36061;48.116;11.612;2022-07-29T14:02:21;2.90;;;2.03;;
50161;SDS011;36061;48.116;11.612;2022-07-29T14:04:47;3.93;;;2.10;;
50161;SDS011;36061;48.116;11.612;2022-07-29T14:07:13;3.83;;;2.60;;
50161;SDS011;36061;48.116;11.612;2022-07-29T14:09:39;3.43;;;2.50;;
50161;SDS011;36061;48.116;11.612;2022-07-29T14:12:05;2.80;;;2.20;;
50161;SDS011;36061;48.116;11.612;2022-07-29T14:14:31;3.80;;;2.03;;
50161;SDS011;36061;48.116;11.612;2022-07-29T14:16:57;2.10;;;1.77;;
50161;SDS011;36061;48.116;11.612;2022-07-29T14:19:23;2.63;;;2.00;;
50161;SDS011;36061;48.116;11.612;2022-07-29T14:21:49;4.47;;;2.57;;
50161;SDS011;36061;48.116;11.612;2022-07-29T14:24:15;3.93;;;2.30;;
50161;SDS011;36061;48.116;11.612;2022-07-29T14:26:41;2.60;;;2.40;;
50161;SDS011;36061;48.116;11.612;2022-07-29T14:29:06;2.40;;;2.20;;
50161;SDS011;36061;48.116;11.612;2022-07-29T14:31:32;5.40;;;2.40;;
50161;SDS011;36061;48.116;11.612;2022-07-29T14:33:58;3.93;;;2.27;;
50161;SDS011;36061;48.116;11.612;2022-07-29T14:36:24;3.33;;;1.87;;
50161;SDS011;36061;48.116;11.612;2022-07-29T14:38:49;2.20;;;2.00;;
50161;SDS011;36061;48.116;11.612;2022-07-29T14:41:15;2.73;;;1.90;;
50161;SDS011;36061;48.116;11.612;2022-07-29T14:43:41;2.70;;;1.80;;
50161;SDS011;36061;48.116;11.612;2022-07-29T14:46:07;3.20;;;2.23;;
50161;SDS011;36061;48.116;11.612;2022-07-29T14:48:33;1.87;;;1.73;;
50161;SDS011;36061;48.116;11.612;2022-07-29T14:50:58;6.00;;;2.00;;
50161;SDS011;36061;48.116;11.612;2022-07-29T14:53:24;2.37;;;1.97;;
50161;SDS011;36061;48.116;11.612;2022-07-29T14:55:50;4.77;;;1.73;;
50161;SDS011;36061;48.116;11.612;2022-07-29T14:58:16;3.00;;;2.30;;
50161;SDS011;36061;48.116;11.612;2022-07-29T15:00:42;2.70;;;2.23;;
50161;SDS011;36061;48.116;11.612;2022-07-29T15:03:07;3.33;;;2.13;;
50161;SDS011;36061;48.116;11.612;2022-07-29T15:05:36;2.70;;;1.97;;
50161;SDS011;36061;48.116;11.612;2022-07-29T15:08:02;2.33;;;2.13;;
50161;SDS011;36061;48.116;11.612;2022-07-29T15:10:28;2.67;;;1.83;;
50161;SDS011;36061;48.116;11.612;2022-07-29T15:12:54;4.33;;;2.23;;
50161;SDS011;36061;48.116;11.612;2022-07-29T15:15:20;2.20;;;1.83;;
50161;SDS011;36061;48.116;11.612;2022-07-29T15:17:46;4.87;;;1.97;;
50161;SDS011;36061;48.116;11.612;2022-07-29T15:20:12;6.70;;;3.20;;
50161;SDS011;36061;48.116;11.612;2022-07-29T15:22:38;2.47;;;1.97;;
50161;SDS011;36061;48.116;11.612;2022-07-29T15:25:06;2.27;;;2.07;;
50161;SDS011;36061;48.116;11.612;2022-07-29T15:27:32;3.67;;;2.10;;
50161;SDS011;36061;48.116;11.612;2022-07-29T15:29:58;2.67;;;1.80;;
50161;SDS011;36061;48.116;11.612;2022-07-29T15:32:24;3.13;;;2.10;;
50161;SDS011;36061;48.116;11.612;2022-07-29T15:34:49;2.43;;;2.20;;
50161;SDS011;36061;48.116;11.612;2022-07-29T15:37:15;4.40;;;2.00;;